Time;durP1;ratioP1;P1;durP2;ratioP2;P2;SDS_P1;SDS_P2;PMS_P1;PMS_P2;Temp;Humidity;BMP_temperature;BMP_pressure;BME280_temperature;BME280_humidity;BME280_pressure;Samples;Min_cycle;Max_cycle;Signal;HPM_P1;HPM_P2
2022/02/23 00:02:43;;;;;;;27.07;16.60;;;;;;;3.75;82.00;100228.27;1684892;85;21308;-60
2022/02/23 00:05:49;;;;;;;30.80;17.30;;;;;;;3.75;81.92;100232.81;1679755;85;21369;-62
2022/02/23 00:08:55;;;;;;;30.60;17.27;;;;;;;3.72;81.77;100238.02;1656644;86;21867;-62
2022/02/23 00:12:00;;;;;;;33.85;17.52;;;;;;;3.70;81.67;100230.52;1678509;85;21242;-62
2022/02/23 00:15:09;;;;;;;30.37;17.30;;;;;;;3.67;81.57;100233.50;1656627;86;21360;-61
2022/02/23 00:18:19;;;;;;;28.85;17.25;;;;;;;3.65;81.49;100234.61;1679710;85;21443;-62
2022/02/23 00:21:24;;;;;;;23.52;16.60;;;;;;;3.62;81.36;100243.87;1679616;85;21469;-61
2022/02/23 00:24:33;;;;;;;29.25;16.67;;;;;;;3.59;81.30;100242.80;1657565;86;21294;-62
2022/02/23 00:27:38;;;;;;;29.27;18.10;;;;;;;3.58;81.25;100249.20;1678014;85;21742;-62
2022/02/23 00:30:45;;;;;;;27.87;16.25;;;;;;;3.56;81.17;100244.41;1688097;84;21247;-61
2022/02/23 00:33:51;;;;;;;28.67;17.25;;;;;;;3.55;81.10;100244.55;1670401;86;21279;-61
2022/02/23 00:36:57;;;;;;;25.32;16.77;;;;;;;3.52;81.04;100244.31;1685184;84;21367;-62
2022/02/23 00:40:02;;;;;;;24.15;15.80;;;;;;;3.51;81.00;100242.61;1678042;85;21365;-61
2022/02/23 00:43:09;;;;;;;26.93;17.02;;;;;;;3.54;80.99;100245.52;1656380;86;21241;-61
2022/02/23 00:46:14;;;;;;;33.95;19.55;;;;;;;3.52;80.79;100245.66;1664953;86;21395;-61
2022/02/23 00:49:22;;;;;;;34.67;19.80;;;;;;;3.50;80.44;100250.86;1665225;86;21989;-62
2022/02/23 00:52:28;;;;;;;34.88;19.42;;;;;;;3.41;80.11;100253.86;1665135;86;21372;-61
2022/02/23 00:55:35;;;;;;;28.10;17.90;;;;;;;3.33;80.07;100257.72;1664023;85;21364;-61
2022/02/23 00:58:41;;;;;;;30.68;18.37;;;;;;;3.27;80.09;100267.73;1657739;86;21254;-62
2022/02/23 01:01:47;;;;;;;29.57;17.55;;;;;;;3.24;80.23;100265.30;1658064;86;21376;-61
2022/02/23 01:04:52;;;;;;;31.37;18.40;;;;;;;3.22;80.39;100255.61;1658152;86;21301;-62
2022/02/23 01:07:58;;;;;;;29.02;17.12;;;;;;;3.18;80.40;100250.09;1658590;85;21261;-62
2022/02/23 01:11:03;;;;;;;26.50;16.07;;;;;;;3.15;80.34;100256.63;1658126;86;21933;-62
2022/02/23 01:14:10;;;;;;;26.95;15.45;;;;;;;3.17;80.59;100258.72;1658351;86;21334;-61
2022/02/23 01:17:16;;;;;;;24.37;15.55;;;;;;;3.21;80.72;100264.21;1658611;86;21391;-61
2022/02/23 01:20:22;;;;;;;28.92;16.90;;;;;;;3.25;80.72;100260.23;1658320;86;21248;-62
2022/02/23 01:23:30;;;;;;;29.92;16.67;;;;;;;3.29;80.62;100262.19;1658669;86;21899;-62
2022/02/23 01:26:37;;;;;;;36.65;19.12;;;;;;;3.31;80.46;100258.38;1657834;86;21225;-62
2022/02/23 01:29:44;;;;;;;34.83;18.67;;;;;;;3.33;80.34;100265.00;1658323;86;21264;-62
2022/02/23 01:32:51;;;;;;;28.15;17.15;;;;;;;3.33;80.20;100259.59;1658530;86;21391;-62
2022/02/23 01:35:57;;;;;;;27.45;15.68;;;;;;;3.34;80.02;100262.17;1658807;86;21412;-61
2022/02/23 01:39:02;;;;;;;26.62;16.32;;;;;;;3.37;79.91;100265.09;1658773;86;21433;-63
2022/02/23 01:42:07;;;;;;;26.75;15.40;;;;;;;3.40;79.75;100272.94;1657935;86;21377;-62
2022/02/23 01:45:14;;;;;;;26.33;15.60;;;;;;;3.42;79.52;100277.23;1658041;86;21785;-62
2022/02/23 01:48:19;;;;;;;24.05;15.35;;;;;;;3.41;78.95;100282.27;1658214;86;21296;-61
2022/02/23 01:51:25;;;;;;;25.95;14.75;;;;;;;3.38;78.78;100292.00;1658206;86;21252;-62
2022/02/23 01:54:31;;;;;;;22.73;13.75;;;;;;;3.35;78.55;100299.04;1658411;86;21901;-61
2022/02/23 01:57:38;;;;;;;21.52;13.28;;;;;;;3.28;78.47;100301.06;1656637;85;21391;-63
2022/02/23 02:00:45;;;;;;;17.70;12.10;;;;;;;3.18;78.23;100302.34;1641930;87;21357;-62
2022/02/23 02:03:50;;;;;;;22.90;13.08;;;;;;;3.09;78.29;100302.62;1648497;87;21246;-62
2022/02/23 02:07:00;;;;;;;19.65;12.98;;;;;;;3.01;78.26;100302.92;1670456;86;21608;-63
2022/02/23 02:10:07;;;;;;;22.65;12.70;;;;;;;2.93;78.32;100306.77;1646417;86;21382;-63
2022/02/23 02:13:12;;;;;;;27.90;13.38;;;;;;;2.86;78.49;100314.53;1654927;86;21727;-63
2022/02/23 02:16:17;;;;;;;21.85;13.15;;;;;;;2.86;78.87;100317.72;1655076;86;21261;-62
2022/02/23 02:19:22;;;;;;;23.57;13.48;;;;;;;2.86;79.08;100310.97;1637079;86;21329;-62
2022/02/23 02:22:29;;;;;;;22.30;12.82;;;;;;;2.87;79.08;100307.30;1654930;86;21251;-61
2022/02/23 02:25:34;;;;;;;19.98;12.28;;;;;;;2.88;79.07;100323.86;1654757;86;21775;-62
2022/02/23 02:28:39;;;;;;;20.92;12.25;;;;;;;2.87;78.98;100322.16;1654774;86;21388;-62
2022/02/23 02:31:48;;;;;;;23.15;12.40;;;;;;;2.86;78.95;100328.05;1655039;86;21854;-62
2022/02/23 02:34:53;;;;;;;18.37;11.70;;;;;;;2.86;78.91;100333.45;1655063;86;21297;-62
2022/02/23 02:37:58;;;;;;;19.85;11.28;;;;;;;2.85;78.80;100340.34;1653560;86;21248;-61
2022/02/23 02:41:03;;;;;;;16.40;10.93;;;;;;;2.83;78.66;100340.95;1654931;86;21432;-61
2022/02/23 02:44:12;;;;;;;17.92;11.25;;;;;;;2.80;78.55;100338.52;1654883;86;21388;-62
2022/02/23 02:47:20;;;;;;;18.50;11.48;;;;;;;2.79;78.51;100355.21;1654814;86;21917;-62
2022/02/23 02:50:26;;;;;;;15.90;10.78;;;;;;;2.74;78.46;100344.44;1654973;86;21399;-62
2022/02/23 02:53:33;;;;;;;16.95;10.90;;;;;;;2.69;78.50;100352.06;1655061;86;21269;-62
2022/02/23 02:56:40;;;;;;;15.43;10.50;;;;;;;2.65;78.56;100347.88;1654886;86;21310;-61
2022/02/23 02:59:45;;;;;;;15.78;11.00;;;;;;;2.60;78.61;100352.31;1662928;85;21623;-61
2022/02/23 03:02:50;;;;;;;17.00;10.38;;;;;;;2.55;78.66;100352.34;1658437;86;21285;-62
2022/02/23 03:05:57;;;;;;;15.28;10.32;;;;;;;2.51;78.74;100358.97;1658282;86;21933;-61
2022/02/23 03:09:03;;;;;;;16.05;10.58;;;;;;;2.45;78.75;100359.47;1657889;86;21257;-62
2022/02/23 03:12:09;;;;;;;17.75;10.70;;;;;;;2.39;78.85;100370.78;1658143;86;21367;-61
2022/02/23 03:15:16;;;;;;;20.52;10.55;;;;;;;2.36;78.95;100379.97;1658418;86;21261;-62
2022/02/23 03:18:24;;;;;;;17.40;10.60;;;;;;;2.34;79.05;100372.99;1642180;86;21387;-61
2022/02/23 03:21:30;;;;;;;16.00;10.15;;;;;;;2.31;79.09;100379.99;1658283;86;21257;-61
2022/02/23 03:24:35;;;;;;;17.25;9.75;;;;;;;2.29;79.12;100376.07;1657942;86;21759;-62
2022/02/23 03:27:40;;;;;;;15.48;9.50;;;;;;;2.25;79.14;100376.45;1658347;86;21400;-62
2022/02/23 03:30:46;;;;;;;17.23;10.55;;;;;;;2.23;79.19;100379.27;1658152;86;21322;-57
2022/02/23 03:33:53;;;;;;;15.40;9.98;;;;;;;2.21;79.25;100385.28;1657729;86;21337;-58
2022/02/23 03:36:58;;;;;;;16.80;10.43;;;;;;;2.22;79.29;100387.50;1658073;86;21372;-57
2022/02/23 03:40:03;;;;;;;15.40;9.93;;;;;;;2.21;79.30;100395.20;1659005;86;21883;-58
2022/02/23 03:43:09;;;;;;;15.85;9.85;;;;;;;2.21;79.27;100389.80;1657962;86;21388;-58
2022/02/23 03:46:14;;;;;;;16.02;10.13;;;;;;;2.19;79.25;100385.05;1657818;86;21906;-59
2022/02/23 03:49:21;;;;;;;17.20;11.93;;;;;;;2.16;79.26;100387.48;1658534;86;21352;-58
2022/02/23 03:52:27;;;;;;;20.92;13.08;;;;;;;2.14;79.33;100396.70;1658352;86;21372;-59
2022/02/23 03:55:32;;;;;;;20.43;10.93;;;;;;;2.12;79.38;100394.13;1657990;86;21450;-58
2022/02/23 03:58:37;;;;;;;16.30;9.78;;;;;;;2.12;79.41;100401.35;1658170;86;21715;-58
2022/02/23 04:01:46;;;;;;;16.87;10.03;;;;;;;2.10;79.43;100406.00;1654586;86;21431;-59
2022/02/23 04:04:53;;;;;;;13.40;9.33;;;;;;;2.09;79.47;100407.00;1670225;85;21303;-59
2022/02/23 04:08:00;;;;;;;14.00;9.78;;;;;;;2.08;79.50;100407.48;1646622;86;21238;-58
2022/02/23 04:11:05;;;;;;;13.98;9.68;;;;;;;2.07;79.47;100410.30;1635631;86;21472;-58
2022/02/23 04:14:12;;;;;;;14.70;9.98;;;;;;;2.05;79.50;100417.66;1646441;86;21436;-58
2022/02/23 04:17:17;;;;;;;16.05;9.95;;;;;;;2.04;79.53;100422.70;1646496;86;21868;-58
2022/02/23 04:20:22;;;;;;;15.72;9.15;;;;;;;2.03;79.56;100427.23;1646360;86;21317;-58
2022/02/23 04:23:28;;;;;;;15.10;9.93;;;;;;;2.04;79.55;100432.14;1646450;86;21363;-59
2022/02/23 04:26:35;;;;;;;16.45;10.63;;;;;;;2.02;79.52;100429.56;1646653;86;21302;-59
2022/02/23 04:29:41;;;;;;;17.92;10.75;;;;;;;2.02;79.50;100436.80;1650746;87;21376;-59
2022/02/23 04:32:47;;;;;;;14.35;9.70;;;;;;;2.01;79.54;100441.36;1642169;87;21246;-59
2022/02/23 04:35:53;;;;;;;12.90;9.58;;;;;;;2.02;79.53;100443.06;1647632;87;21310;-60
2022/02/23 04:38:59;;;;;;;15.18;9.38;;;;;;;2.03;79.50;100445.28;1632233;86;21239;-59
2022/02/23 04:42:08;;;;;;;15.90;9.43;;;;;;;2.03;79.42;100455.57;1646430;86;21222;-60
2022/02/23 04:45:13;;;;;;;15.48;9.55;;;;;;;2.02;79.40;100452.99;1646663;86;21416;-59
2022/02/23 04:48:18;;;;;;;13.62;9.18;;;;;;;2.06;79.40;100466.12;1647545;86;21489;-59
2022/02/23 04:51:27;;;;;;;14.00;9.75;;;;;;;2.09;79.30;100473.14;1646864;86;21258;-59
2022/02/23 04:54:34;;;;;;;15.48;9.45;;;;;;;2.10;79.21;100475.72;1646688;86;21733;-60
2022/02/23 04:57:40;;;;;;;16.85;10.10;;;;;;;2.12;79.15;100481.87;1646457;86;21290;-60
2022/02/23 05:00:45;;;;;;;13.75;9.23;;;;;;;2.14;79.02;100486.63;1647600;86;21404;-59
2022/02/23 05:03:50;;;;;;;17.10;10.13;;;;;;;2.15;78.87;100493.78;1623793;88;21213;-61
2022/02/23 05:06:56;;;;;;;14.13;9.18;;;;;;;2.15;78.75;100495.13;1669923;86;21238;-60
2022/02/23 05:10:02;;;;;;;14.85;9.90;;;;;;;2.17;78.70;100493.66;1665017;84;21250;-59
2022/02/23 05:13:08;;;;;;;19.77;11.70;;;;;;;2.18;78.61;100504.81;1676674;85;21218;-61
2022/02/23 05:16:15;;;;;;;17.98;11.80;;;;;;;2.21;78.58;100508.63;1657837;85;21745;-60
2022/02/23 05:19:21;;;;;;;26.05;15.65;;;;;;;2.24;78.49;100512.42;1637470;86;21871;-60
2022/02/23 05:22:26;;;;;;;42.80;26.50;;;;;;;2.29;78.48;100515.63;1652071;85;22059;-59
2022/02/23 05:25:31;;;;;;;35.25;23.00;;;;;;;2.37;78.41;100522.64;1673533;85;21301;-60
2022/02/23 05:28:37;;;;;;;37.53;24.25;;;;;;;2.45;78.37;100526.95;1681488;85;21363;-60
2022/02/23 05:31:44;;;;;;;25.50;19.45;;;;;;;2.54;78.20;100530.27;1681795;85;21400;-60
2022/02/23 05:34:50;;;;;;;22.80;16.15;;;;;;;2.63;78.01;100538.50;1676047;85;21388;-60
2022/02/23 05:37:55;;;;;;;27.67;19.02;;;;;;;2.75;77.82;100535.33;1688606;83;21209;-60
2022/02/23 05:41:03;;;;;;;64.50;31.15;;;;;;;2.86;77.57;100539.38;1656987;85;21241;-60
2022/02/23 05:44:08;;;;;;;56.40;27.02;;;;;;;2.94;77.30;100535.56;1652442;86;21242;-62
2022/02/23 05:47:13;;;;;;;39.15;19.82;;;;;;;3.00;77.05;100545.87;1669078;85;21225;-59
2022/02/23 05:50:19;;;;;;;29.23;18.27;;;;;;;3.05;76.86;100554.48;1653653;86;21261;-60
2022/02/23 05:53:25;;;;;;;30.92;19.52;;;;;;;3.08;76.74;100552.88;1676491;84;22056;-59
2022/02/23 05:56:31;;;;;;;40.10;21.85;;;;;;;3.13;76.59;100552.50;1641558;85;21265;-58
2022/02/23 05:59:37;;;;;;;32.08;20.23;;;;;;;3.17;76.53;100555.34;1657856;85;21277;-61
2022/02/23 06:02:44;;;;;;;22.95;15.25;;;;;;;3.22;76.50;100556.67;1663537;84;21692;-59
2022/02/23 06:05:50;;;;;;;27.05;16.10;;;;;;;3.29;76.44;100555.20;1674094;85;21264;-59
2022/02/23 06:08:58;;;;;;;25.40;15.63;;;;;;;3.37;76.36;100562.20;1682924;83;21266;-59
2022/02/23 06:12:04;;;;;;;21.00;13.30;;;;;;;3.45;76.21;100572.37;1683978;83;21231;-60
2022/02/23 06:15:10;;;;;;;23.52;12.73;;;;;;;3.52;76.03;100577.67;1683016;84;21783;-59
2022/02/23 06:18:16;;;;;;;21.90;13.68;;;;;;;3.58;75.96;100588.85;1716508;83;21217;-58
2022/02/23 06:21:23;;;;;;;24.18;13.00;;;;;;;3.62;75.83;100584.02;1693960;84;21366;-59
2022/02/23 06:24:28;;;;;;;22.27;11.83;;;;;;;3.64;75.64;100601.88;1685694;84;21838;-59
2022/02/23 06:27:34;;;;;;;19.98;11.43;;;;;;;3.62;75.37;100587.59;1685891;84;21230;-59
2022/02/23 06:30:39;;;;;;;16.45;9.65;;;;;;;3.66;75.21;100591.78;1681693;84;21229;-59
2022/02/23 06:33:47;;;;;;;16.82;10.48;;;;;;;3.71;74.93;100592.75;1695639;84;21210;-59
2022/02/23 06:36:53;;;;;;;15.68;10.38;;;;;;;3.76;74.66;100598.13;1686688;84;21293;-59
2022/02/23 06:39:59;;;;;;;14.63;9.40;;;;;;;3.83;74.57;100593.94;1684297;84;21806;-60
2022/02/23 06:43:06;;;;;;;19.42;10.95;;;;;;;3.90;74.33;100589.71;1700848;84;21230;-60
2022/02/23 06:46:13;;;;;;;23.92;13.18;;;;;;;3.97;74.10;100588.23;1690844;84;21242;-59
2022/02/23 06:49:18;;;;;;;19.30;11.88;;;;;;;4.01;73.75;100582.90;1681689;84;21273;-60
2022/02/23 06:52:24;;;;;;;20.43;10.85;;;;;;;4.07;73.57;100574.28;1696071;84;21383;-59
2022/02/23 06:55:30;;;;;;;16.52;10.75;;;;;;;4.14;73.25;100575.46;1691228;84;21246;-59
2022/02/23 06:58:36;;;;;;;13.95;8.55;;;;;;;4.21;73.06;100586.16;1684797;83;21289;-60
2022/02/23 07:01:43;;;;;;;16.12;9.43;;;;;;;4.30;72.74;100582.65;1700092;84;21238;-59
2022/02/23 07:04:49;;;;;;;15.30;8.50;;;;;;;4.36;72.37;100583.47;1708852;83;21230;-60
2022/02/23 07:07:56;;;;;;;13.10;8.50;;;;;;;4.41;71.97;100579.00;1712273;83;21221;-60
2022/02/23 07:11:03;;;;;;;14.58;9.35;;;;;;;4.45;71.77;100585.41;1712732;83;21304;-60
2022/02/23 07:14:11;;;;;;;15.58;8.65;;;;;;;4.52;71.58;100582.52;1697507;83;21202;-62
2022/02/23 07:17:16;;;;;;;11.85;7.53;;;;;;;4.59;71.31;100589.14;1697211;83;21840;-60
2022/02/23 07:20:22;;;;;;;11.83;8.35;;;;;;;4.65;71.14;100585.54;1684016;84;21509;-59
2022/02/23 07:23:28;;;;;;;16.45;9.98;;;;;;;4.72;70.87;100587.58;1683840;84;21244;-60
2022/02/23 07:26:35;;;;;;;15.15;10.23;;;;;;;4.78;70.58;100597.01;1698701;83;21270;-60
2022/02/23 07:29:40;;;;;;;12.93;8.38;;;;;;;4.83;70.29;100593.41;1709932;83;21619;-60
2022/02/23 07:32:48;;;;;;;14.00;8.90;;;;;;;4.88;70.23;100594.73;1713348;83;21257;-61
2022/02/23 07:35:55;;;;;;;12.88;8.50;;;;;;;4.98;70.05;100602.92;1704600;83;21241;-61
2022/02/23 07:39:01;;;;;;;15.10;9.10;;;;;;;5.06;69.79;100607.17;1702963;83;21371;-62
2022/02/23 07:42:07;;;;;;;13.20;8.28;;;;;;;5.10;69.39;100612.68;1690673;83;21317;-61
2022/02/23 07:45:16;;;;;;;14.03;7.83;;;;;;;5.12;69.15;100615.61;1691296;83;21249;-62
2022/02/23 07:48:22;;;;;;;11.88;8.33;;;;;;;5.10;68.80;100616.75;1695591;83;21245;-63
2022/02/23 07:51:28;;;;;;;10.23;7.80;;;;;;;5.09;68.85;100617.75;1693770;83;21241;-62
2022/02/23 07:54:33;;;;;;;13.30;7.50;;;;;;;5.13;68.95;100623.26;1683932;84;21293;-61
2022/02/23 07:57:41;;;;;;;11.20;7.53;;;;;;;5.17;68.79;100630.16;1684169;84;21209;-61
2022/02/23 08:00:47;;;;;;;10.90;6.55;;;;;;;5.19;68.49;100638.98;1690993;83;21241;-62
2022/02/23 08:03:56;;;;;;;12.25;7.22;;;;;;;5.19;68.46;100639.86;1700169;83;21735;-63
2022/02/23 08:07:05;;;;;;;15.55;7.70;;;;;;;5.20;68.35;100636.14;1703474;83;21814;-62
2022/02/23 08:10:12;;;;;;;13.83;7.17;;;;;;;5.24;68.50;100640.81;1690615;83;21907;-63
2022/02/23 08:13:18;;;;;;;11.70;7.10;;;;;;;5.27;68.41;100641.89;1648095;86;21339;-62
2022/02/23 08:19:47;;;;;;;12.15;7.33;;;;;;;5.32;68.59;100639.14;1684128;84;21238;-63
2022/02/23 08:22:54;;;;;;;12.18;7.72;;;;;;;5.37;68.86;100633.30;1694511;84;21475;-62
2022/02/23 08:26:00;;;;;;;14.07;8.20;;;;;;;5.43;68.77;100636.81;1650236;86;21621;-60
2022/02/23 08:29:07;;;;;;;16.00;10.35;;;;;;;5.46;68.71;100643.33;1696740;84;21289;-63
2022/02/23 08:32:15;;;;;;;11.18;6.95;;;;;;;5.52;68.73;100630.06;1689176;83;21233;-61
2022/02/23 08:35:22;;;;;;;9.13;5.37;;;;;;;5.64;68.57;100630.83;1645254;86;21296;-61
2022/02/23 08:38:28;;;;;;;9.25;5.58;;;;;;;5.74;68.00;100627.65;1692439;83;21611;-65
2022/02/23 08:41:36;;;;;;;10.35;5.78;;;;;;;5.83;67.03;100630.42;1690237;84;21447;-61
2022/02/23 08:44:44;;;;;;;8.70;5.20;;;;;;;5.91;65.96;100628.36;1679150;84;21241;-63
2022/02/23 08:47:52;;;;;;;9.53;5.03;;;;;;;6.03;65.02;100631.30;1642825;86;21504;-62
2022/02/23 08:50:59;;;;;;;11.38;6.33;;;;;;;6.10;64.14;100638.73;1697100;83;21280;-62
2022/02/23 08:54:04;;;;;;;9.58;5.15;;;;;;;6.21;63.81;100637.77;1690685;84;21356;-62
2022/02/23 08:57:12;;;;;;;8.83;5.05;;;;;;;6.33;63.37;100646.13;1648752;86;21256;-60
2022/02/23 09:00:19;;;;;;;6.97;4.70;;;;;;;6.46;63.19;100630.39;1687516;83;21249;-62
2022/02/23 09:03:27;;;;;;;7.00;5.47;;;;;;;6.65;62.74;100645.34;1680545;85;21383;-61
2022/02/23 09:06:34;;;;;;;6.67;4.28;;;;;;;6.80;61.92;100638.44;1679752;84;21265;-61
2022/02/23 09:09:40;;;;;;;7.78;4.62;;;;;;;6.88;61.42;100639.92;1650387;85;21797;-60
2022/02/23 09:12:47;;;;;;;5.78;4.08;;;;;;;6.96;61.24;100640.58;1667713;85;21238;-59
2022/02/23 09:15:53;;;;;;;7.85;4.95;;;;;;;7.04;60.99;100627.93;1680328;85;21226;-60
2022/02/23 09:18:59;;;;;;;6.22;4.17;;;;;;;7.12;60.30;100630.78;1676256;85;21217;-60
2022/02/23 09:22:06;;;;;;;7.85;4.67;;;;;;;7.23;59.74;100631.95;1671076;85;21226;-60
2022/02/23 09:25:12;;;;;;;9.08;4.75;;;;;;;7.33;58.63;100624.63;1681134;85;21305;-60
2022/02/23 09:28:19;;;;;;;7.28;4.45;;;;;;;7.39;58.33;100630.83;1681848;85;21360;-60
2022/02/23 09:31:25;;;;;;;7.87;4.55;;;;;;;7.45;57.05;100616.60;1682082;85;21451;-60
2022/02/23 09:34:30;;;;;;;9.48;5.08;;;;;;;7.45;56.25;100623.41;1680326;85;21409;-59
2022/02/23 09:37:37;;;;;;;6.40;4.10;;;;;;;7.45;56.13;100625.30;1680670;85;21214;-59
2022/02/23 09:40:41;;;;;;;6.83;4.00;;;;;;;7.48;55.93;100619.02;1662531;85;21293;-59
2022/02/23 09:43:52;;;;;;;7.83;4.87;;;;;;;7.50;55.95;100638.80;1680532;85;21814;-60
2022/02/23 09:46:55;;;;;;;9.45;6.22;;;;;;;7.54;56.47;100626.62;1679922;85;22080;-59
2022/02/23 09:50:01;;;;;;;9.65;6.20;;;;;;;7.56;57.29;100627.83;1635146;85;21409;-59
2022/02/23 09:53:11;;;;;;;13.70;7.17;;;;;;;7.56;58.16;100638.72;1653537;86;21240;-58
2022/02/23 09:56:25;;;;;;;17.75;8.88;;;;;;;7.58;59.57;100633.95;1816326;76;22280;-57
2022/02/23 09:59:31;;;;;;;13.80;10.38;;;;;;;7.50;60.48;100634.72;1746386;81;21765;-59
2022/02/23 10:02:37;;;;;;;19.20;9.65;;;;;;;7.46;61.68;100630.59;1771108;80;21240;-58
2022/02/23 10:05:47;;;;;;;13.75;9.50;;;;;;;7.46;62.83;100633.31;1754693;80;21218;-59
2022/02/23 10:08:54;;;;;;;13.80;9.68;;;;;;;7.42;63.45;100630.52;1776388;80;21183;-57
2022/02/23 10:11:59;;;;;;;17.82;10.80;;;;;;;7.43;64.16;100639.07;1765355;80;21678;-58
2022/02/23 10:15:20;;;;;;;18.65;11.38;;;;;;;7.55;64.83;100641.08;1765822;80;21186;-58
2022/02/23 10:18:28;;;;;;;15.25;9.58;;;;;;;7.74;65.28;100642.34;1765989;80;21228;-59
2022/02/23 10:21:32;;;;;;;16.75;10.45;;;;;;;7.96;64.77;100643.81;1767090;80;21363;-58
2022/02/23 10:24:40;;;;;;;14.45;9.45;;;;;;;8.15;63.78;100641.80;1766899;80;21204;-59
2022/02/23 10:27:47;;;;;;;11.95;9.48;;;;;;;8.25;63.46;100647.22;1767635;80;21358;-58
2022/02/23 10:30:58;;;;;;;15.35;9.25;;;;;;;8.22;63.08;100644.77;1768407;80;21816;-60
2022/02/23 10:34:07;;;;;;;14.03;11.53;;;;;;;8.17;63.19;100649.33;1767906;80;21187;-59
2022/02/23 10:37:15;;;;;;;15.03;10.50;;;;;;;8.18;63.38;100642.85;1751098;80;21299;-60
2022/02/23 10:40:19;;;;;;;13.75;8.93;;;;;;;8.30;63.41;100640.80;1765373;80;21325;-59
2022/02/23 10:43:43;;;;;;;14.20;9.73;;;;;;;8.43;62.85;100642.64;1766023;81;21350;-61
2022/02/23 10:46:50;;;;;;;15.35;8.98;;;;;;;8.55;62.98;100638.65;1767152;81;21812;-61
2022/02/23 10:50:20;;;;;;;15.35;9.18;;;;;;;8.57;63.05;100633.91;1764970;80;21361;-61
2022/02/23 10:53:33;;;;;;;13.00;8.95;;;;;;;8.63;62.68;100631.41;1752743;81;21189;-60
2022/02/23 10:56:40;;;;;;;17.27;9.68;;;;;;;8.75;62.44;100634.22;1768952;80;21193;-61
2022/02/23 10:59:47;;;;;;;12.80;8.43;;;;;;;8.90;61.48;100640.84;1769010;80;21853;-62
2022/02/23 11:02:55;;;;;;;11.63;9.10;;;;;;;8.99;60.49;100631.69;1769149;80;21289;-63
2022/02/23 11:06:01;;;;;;;13.75;9.15;;;;;;;9.04;60.35;100631.20;1768049;79;21344;-60
2022/02/23 11:09:07;;;;;;;13.83;9.98;;;;;;;8.91;60.62;100638.98;1763953;80;21801;-61
2022/02/23 11:12:14;;;;;;;16.35;10.25;;;;;;;8.75;61.00;100630.66;1768759;80;21319;-60
2022/02/23 11:15:23;;;;;;;12.40;10.28;;;;;;;8.57;61.70;100632.05;1767770;79;21233;-62
2022/02/23 11:18:29;;;;;;;14.60;9.93;;;;;;;8.52;62.04;100628.92;1769916;80;21173;-61
2022/02/23 11:21:39;;;;;;;13.03;9.90;;;;;;;8.44;62.21;100638.39;1738467;80;21227;-62
2022/02/23 11:24:46;;;;;;;13.60;9.93;;;;;;;8.42;62.20;100639.58;1738242;81;21232;-61
2022/02/23 11:27:52;;;;;;;14.45;9.88;;;;;;;8.53;62.58;100636.08;1768776;80;21793;-62
2022/02/23 11:31:01;;;;;;;15.45;10.43;;;;;;;8.73;61.21;100636.78;1760374;80;21782;-61
2022/02/23 11:34:18;;;;;;;12.60;10.30;;;;;;;8.80;60.40;100636.50;1763545;80;21198;-61
2022/02/23 11:37:25;;;;;;;13.25;8.45;;;;;;;8.81;60.29;100635.48;1737873;80;21181;-61
2022/02/23 11:40:32;;;;;;;12.60;8.08;;;;;;;8.83;59.16;100634.30;1748169;80;21522;-60
2022/02/23 11:43:47;;;;;;;10.48;6.50;;;;;;;8.77;58.17;100630.84;1734300;80;21169;-62
2022/02/23 11:47:24;;;;;;;9.23;6.17;;;;;;;8.78;56.86;100630.34;1746899;81;21197;-64
2022/02/23 11:50:53;;;;;;;8.93;6.58;;;;;;;8.77;56.05;100629.47;1757876;80;21482;-65
2022/02/23 11:54:05;;;;;;;9.25;5.85;;;;;;;8.91;54.91;100641.72;1760551;81;21193;-63
2022/02/23 11:58:00;;;;;;;11.20;6.53;;;;;;;8.99;54.68;100636.31;1767705;79;21212;-62
2022/02/23 12:01:09;;;;;;;9.38;5.92;;;;;;;9.05;54.35;100642.50;1769676;79;21743;-64
2022/02/23 12:04:19;;;;;;;8.00;5.80;;;;;;;8.93;52.61;100647.35;1761877;79;21184;-65
2022/02/23 12:07:26;;;;;;;10.90;6.00;;;;;;;8.77;52.84;100647.71;1767439;80;21758;-65
2022/02/23 12:10:38;;;;;;;11.20;6.72;;;;;;;8.71;53.44;100636.06;1772241;80;21279;-62
2022/02/23 12:13:58;;;;;;;10.85;6.20;;;;;;;8.67;53.79;100640.14;1769502;80;21204;-64
2022/02/23 12:17:09;;;;;;;9.18;6.90;;;;;;;8.60;54.68;100645.86;1760986;81;21188;-63
2022/02/23 12:20:15;;;;;;;7.97;5.60;;;;;;;8.70;54.57;100646.64;1749938;80;21267;-63
2022/02/23 12:23:33;;;;;;;7.78;5.92;;;;;;;8.87;53.98;100645.76;1758884;81;22054;-62
2022/02/23 12:26:43;;;;;;;12.15;6.83;;;;;;;9.04;53.77;100654.41;1733156;82;21219;-62
2022/02/23 12:29:49;;;;;;;9.40;6.05;;;;;;;9.16;53.21;100654.52;1718712;81;21244;-63
2022/02/23 12:32:56;;;;;;;10.23;6.28;;;;;;;9.13;52.96;100643.92;1768188;80;22034;-63
2022/02/23 12:36:03;;;;;;;9.10;5.95;;;;;;;9.05;52.67;100652.05;1759769;80;21261;-63
2022/02/23 12:39:08;;;;;;;9.65;6.20;;;;;;;9.00;52.37;100646.20;1754041;81;21193;-62
2022/02/23 12:42:15;;;;;;;8.38;6.03;;;;;;;8.94;52.25;100640.02;1755743;80;21398;-63
2022/02/23 12:45:20;;;;;;;7.42;5.83;;;;;;;8.99;52.34;100639.05;1758459;80;21223;-64
2022/02/23 12:48:37;;;;;;;7.55;5.60;;;;;;;9.12;52.43;100642.19;1766552;80;21209;-62
2022/02/23 12:51:45;;;;;;;9.78;5.40;;;;;;;9.29;51.73;100644.03;1767587;80;21186;-62
2022/02/23 12:54:51;;;;;;;7.47;5.65;;;;;;;9.28;51.42;100645.53;1767844;79;21813;-63
2022/02/23 12:57:58;;;;;;;10.75;5.47;;;;;;;9.23;50.99;100641.09;1767347;80;21801;-63
2022/02/23 13:01:04;;;;;;;8.28;5.80;;;;;;;9.20;51.00;100643.61;1703003;82;21238;-67
2022/02/23 13:04:16;;;;;;;8.80;6.20;;;;;;;9.20;51.15;100647.70;1782969;79;21181;-63
2022/02/23 13:07:23;;;;;;;7.80;6.05;;;;;;;9.16;50.79;100642.23;1762455;81;21749;-63
2022/02/23 13:10:31;;;;;;;9.10;6.17;;;;;;;9.19;50.51;100641.04;1742374;79;21189;-62
2022/02/23 13:13:47;;;;;;;17.90;9.80;;;;;;;9.19;50.38;100639.17;1763413;80;21197;-62
2022/02/23 13:17:00;;;;;;;11.40;6.60;;;;;;;9.17;49.92;100641.70;1755285;81;22048;-64
2022/02/23 13:20:05;;;;;;;11.18;5.92;;;;;;;9.09;50.57;100641.14;1766085;79;21220;-62
2022/02/23 13:23:12;;;;;;;9.70;5.67;;;;;;;9.17;50.29;100652.62;1765706;80;21484;-65
2022/02/23 13:26:17;;;;;;;9.58;6.00;;;;;;;9.19;49.96;100651.47;1768248;79;21284;-65
2022/02/23 13:29:27;;;;;;;9.18;5.72;;;;;;;9.20;50.49;100662.73;1767811;79;21730;-63
2022/02/23 13:32:39;;;;;;;9.65;6.10;;;;;;;9.28;50.78;100671.48;1770090;80;21165;-64
2022/02/23 13:35:42;;;;;;;11.12;5.95;;;;;;;9.34;50.21;100664.87;1757539;80;21267;-63
2022/02/23 13:38:48;;;;;;;9.50;6.17;;;;;;;9.40;49.96;100665.61;1768779;80;21255;-62
2022/02/23 13:42:19;;;;;;;8.15;5.92;;;;;;;9.45;50.15;100676.89;1769994;80;21322;-65
2022/02/23 13:45:32;;;;;;;8.83;6.50;;;;;;;9.50;49.85;100675.91;1765533;80;21222;-62
2022/02/23 13:48:38;;;;;;;8.80;6.30;;;;;;;9.55;49.69;100683.11;1760673;80;21387;-63
2022/02/23 13:51:49;;;;;;;10.55;6.03;;;;;;;9.47;49.61;100674.86;1739134;82;21240;-63
2022/02/23 13:55:24;;;;;;;10.05;6.45;;;;;;;9.33;49.75;100689.13;1777368;80;21230;-62
2022/02/23 13:58:38;;;;;;;10.60;7.17;;;;;;;9.26;49.88;100695.39;1765945;79;21294;-62
2022/02/23 14:01:46;;;;;;;9.75;6.15;;;;;;;9.27;49.73;100699.33;1768315;81;21190;-62
2022/02/23 14:04:54;;;;;;;9.35;6.10;;;;;;;9.24;49.25;100701.02;1765665;80;21208;-61
2022/02/23 14:08:03;;;;;;;10.80;5.45;;;;;;;9.19;49.30;100706.59;1766088;81;21447;-62
2022/02/23 14:11:30;;;;;;;7.03;5.35;;;;;;;9.16;49.25;100697.35;1760382;81;21252;-62
2022/02/23 14:14:45;;;;;;;10.55;6.42;;;;;;;9.11;48.98;100708.76;1742839;79;21185;-62
2022/02/23 14:17:53;;;;;;;7.78;5.62;;;;;;;9.00;49.29;100708.52;1744657;81;21727;-61
2022/02/23 14:21:01;;;;;;;11.20;5.97;;;;;;;8.89;49.45;100714.72;1735882;81;21227;-64
2022/02/23 14:24:09;;;;;;;12.68;5.87;;;;;;;8.79;49.42;100716.66;1745062;81;21174;-62
2022/02/23 14:27:16;;;;;;;9.65;5.62;;;;;;;8.68;49.53;100718.26;1762528;81;21197;-61
2022/02/23 14:30:29;;;;;;;8.90;6.37;;;;;;;8.62;49.81;100719.75;1757959;81;21198;-62
2022/02/23 14:33:39;;;;;;;8.00;5.47;;;;;;;8.59;49.78;100717.84;1764742;80;21190;-62
2022/02/23 14:36:45;;;;;;;8.28;4.90;;;;;;;8.49;49.63;100719.77;1767188;81;21212;-63